ポルト・アレグレ の空港の天気 - METARとTAF

ポルト・アレグレ国際空港 ( SBPA / POA ) - ブラジル リオグランデ・ド・スル州ポルト・アレグレ
飛行場実況気象(Metar)
観測時間07/22 15:00 BRT (07/22 18:00 UTC)
風向・風速東 3m/s
視程10km以上
天気現象
なし
気温19℃
湿度60%
気圧1019hPa
METARSBPA 221800Z 09005KT CAVOK 19/11 Q1019
過去の天気等 Google飛行場航空写真 Wunderground天気予報

過去48時間のMETAR

飛行場予報(TAF)
発表時間: 7/22 13:15 BRT (7/22 16:15 UTC)
予報対象時間: 22日15時 BRT ~ 23日15時 BRT
風向・風速東南東 3m/s
視程10km以上
なし
22日16時 BRT ~ 22日18時 BRT に徐々に
風向・風速南 3m/s
視程10km以上
少しの雲 雲底高度 910m
23日5時 BRT ~ 23日9時 BRT に 確率 30% で一時的に
視程8000m
天気現象
23日11時 BRT ~ 23日13時 BRT に徐々に
23日13時 BRT ~ 23日15時 BRT に徐々に
全天の8割程度の雲 雲底高度 610m
TAF SBPA 221615Z 2218/2318 11006KT CAVOK TX17/2218Z TN11/2308Z
BECMG 2219/2221 18005KT 9999 FEW030
PROB30 TEMPO 2308/2312 8000 RA
BECMG 2314/2316 1 6009KT
BECMG 2316/2318 BKN020 RMK PCX